Time;durP1;ratioP1;P1;durP2;ratioP2;P2;SDS_P1;SDS_P2;PMS_P1;PMS_P2;Temp;Humidity;BMP_temperature;BMP_pressure;BME280_temperature;BME280_humidity;BME280_pressure;Samples;Min_cycle;Max_cycle;Signal;HPM_P1;HPM_P2
2022/05/24 00:00:03;;;;;;;6.32;4.82;;;13.50;99.90;;;;;;5056715;28;20049;-68
2022/05/24 00:02:28;;;;;;;6.07;4.18;;;13.50;99.90;;;;;;5056404;28;20063;-66
2022/05/24 00:04:54;;;;;;;7.07;4.63;;;13.50;99.90;;;;;;5074605;28;20041;-68
2022/05/24 00:07:20;;;;;;;5.75;4.70;;;13.50;99.90;;;;;;5055712;28;20052;-66
2022/05/24 00:09:45;;;;;;;5.43;4.32;;;13.50;99.90;;;;;;5055354;28;20056;-66
2022/05/24 00:12:11;;;;;;;7.72;4.20;;;13.50;99.90;;;;;;5056330;28;20048;-65
2022/05/24 00:17:20;;;;;;;7.47;4.25;;;13.40;99.90;;;;;;5072577;28;20485;-66
2022/05/24 00:19:46;;;;;;;7.55;4.53;;;13.40;99.90;;;;;;5057396;28;20048;-66
2022/05/24 00:22:12;;;;;;;7.35;3.97;;;13.40;99.90;;;;;;5056334;28;20060;-65
2022/05/24 00:24:38;;;;;;;5.97;4.05;;;13.40;99.90;;;;;;5056461;28;20441;-65
2022/05/24 00:27:03;;;;;;;6.60;4.13;;;13.40;99.90;;;;;;5072730;28;20063;-66
2022/05/24 00:29:29;;;;;;;5.00;3.92;;;13.40;99.90;;;;;;5056492;28;20068;-65
2022/05/24 00:31:54;;;;;;;5.68;4.03;;;13.40;99.90;;;;;;5072448;28;20052;-66
2022/05/24 00:34:20;;;;;;;5.40;3.67;;;13.40;99.90;;;;;;5054500;28;20044;-66
2022/05/24 00:36:45;;;;;;;5.63;3.70;;;13.30;99.90;;;;;;5055399;28;20052;-67
2022/05/24 00:39:11;;;;;;;4.40;3.67;;;13.40;99.90;;;;;;5055097;28;20041;-66
2022/05/24 00:41:43;;;;;;;4.25;3.53;;;13.40;99.90;;;;;;5054904;28;20126;-66
2022/05/24 00:44:21;;;;;;;5.90;4.13;;;13.30;99.90;;;;;;5073528;28;20048;-68
2022/05/24 00:46:54;;;;;;;6.55;3.72;;;13.40;99.90;;;;;;5073236;28;20056;-66
2022/05/24 00:49:28;;;;;;;5.55;4.28;;;13.30;99.90;;;;;;5056354;28;20056;-67
2022/05/24 00:52:00;;;;;;;5.80;3.45;;;13.40;99.90;;;;;;5073468;28;20055;-65
2022/05/24 00:54:25;;;;;;;6.30;3.90;;;13.40;99.90;;;;;;5074408;28;20060;-67
2022/05/24 00:57:03;;;;;;;5.30;3.95;;;13.40;99.90;;;;;;5054283;28;20048;-66
2022/05/24 00:59:59;;;;;;;6.22;3.63;;;13.40;99.90;;;;;;5073592;28;20090;-65
2022/05/24 01:02:24;;;;;;;5.78;3.95;;;13.40;99.90;;;;;;5055098;28;20053;-66
2022/05/24 01:04:50;;;;;;;6.00;4.95;;;13.40;99.90;;;;;;5073491;28;20390;-66
2022/05/24 01:07:16;;;;;;;8.05;6.53;;;13.40;99.90;;;;;;5054344;28;20382;-67
2022/05/24 01:09:46;;;;;;;9.13;7.25;;;13.40;99.90;;;;;;5073365;28;20048;-66
2022/05/24 01:12:18;;;;;;;13.23;9.13;;;13.40;99.90;;;;;;5055753;28;20053;-66
2022/05/24 01:14:44;;;;;;;11.73;9.20;;;13.30;99.90;;;;;;5055292;28;20087;-67
2022/05/24 01:17:10;;;;;;;11.45;10.15;;;13.30;99.90;;;;;;5072610;28;20044;-66
2022/05/24 01:19:44;;;;;;;12.80;10.32;;;13.20;99.90;;;;;;5055568;28;20059;-66
2022/05/24 01:22:45;;;;;;;11.50;9.70;;;13.20;99.90;;;;;;5071653;28;20131;-67
2022/05/24 01:25:23;;;;;;;12.05;10.35;;;13.20;99.90;;;;;;5073355;28;20052;-67
2022/05/24 01:27:49;;;;;;;15.75;10.75;;;13.20;99.90;;;;;;5054690;28;20057;-66
2022/05/24 01:30:15;;;;;;;13.57;11.05;;;13.30;99.90;;;;;;5055378;28;20045;-68
2022/05/24 01:38:13;;;;;;;12.38;10.88;;;13.20;99.90;;;;;;5072919;28;20508;-67
2022/05/24 01:40:39;;;;;;;14.95;10.50;;;13.30;99.90;;;;;;5055308;28;20448;-66
2022/05/24 01:43:06;;;;;;;14.02;10.85;;;13.30;99.90;;;;;;5053468;28;20040;-65
2022/05/24 01:45:37;;;;;;;13.27;10.95;;;13.30;99.90;;;;;;5055208;28;20142;-67
2022/05/24 01:48:08;;;;;;;13.32;10.55;;;13.30;99.90;;;;;;5072166;28;20056;-66
2022/05/24 01:50:36;;;;;;;16.85;11.55;;;13.30;99.90;;;;;;5072586;28;20052;-68
2022/05/24 01:53:09;;;;;;;13.93;11.10;;;13.20;99.90;;;;;;5035226;28;20436;-67
2022/05/24 01:55:41;;;;;;;14.07;11.57;;;13.10;99.90;;;;;;5051247;28;20045;-66
2022/05/24 01:58:10;;;;;;;14.20;10.55;;;13.10;99.90;;;;;;5065568;28;20052;-66
2022/05/24 02:00:36;;;;;;;13.52;11.07;;;13.00;99.90;;;;;;5055220;28;20052;-66
2022/05/24 02:03:02;;;;;;;17.05;11.48;;;13.00;99.90;;;;;;5072251;28;20135;-66
2022/05/24 02:05:31;;;;;;;13.23;11.27;;;13.00;99.90;;;;;;5072140;28;20076;-65
2022/05/24 02:07:57;;;;;;;14.18;11.13;;;12.90;99.90;;;;;;5073085;28;20048;-66
2022/05/24 02:10:22;;;;;;;15.07;11.50;;;12.90;99.90;;;;;;5054768;28;20045;-66
2022/05/24 02:12:53;;;;;;;12.88;11.20;;;12.90;99.90;;;;;;5072087;28;20042;-66
2022/05/24 02:15:28;;;;;;;15.25;11.35;;;13.00;99.90;;;;;;5053427;28;20503;-66
2022/05/24 02:18:08;;;;;;;17.40;11.73;;;13.00;99.90;;;;;;5052244;28;20120;-66
2022/05/24 02:20:41;;;;;;;12.77;11.15;;;13.00;99.90;;;;;;5052755;28;20083;-66
2022/05/24 02:23:09;;;;;;;16.33;13.50;;;13.00;99.90;;;;;;5017963;28;20092;-66
2022/05/24 02:25:41;;;;;;;14.43;11.60;;;13.00;99.90;;;;;;5052356;28;20493;-66
2022/05/24 02:28:09;;;;;;;19.15;13.35;;;13.00;99.90;;;;;;5066031;28;20076;-67
2022/05/24 02:30:39;;;;;;;20.90;15.48;;;13.10;99.90;;;;;;5052708;28;20127;-67
2022/05/24 02:33:05;;;;;;;23.65;17.25;;;13.10;99.90;;;;;;5054196;28;20125;-66
2022/05/24 02:35:30;;;;;;;20.35;16.38;;;13.10;99.90;;;;;;5054536;28;20388;-66
2022/05/24 02:37:56;;;;;;;22.45;17.17;;;13.20;99.90;;;;;;5053549;28;20040;-66
2022/05/24 02:43:05;;;;;;;27.00;18.83;;;13.10;99.90;;;;;;5075544;28;20049;-65
2022/05/24 02:45:31;;;;;;;29.13;19.60;;;13.20;99.90;;;;;;5076446;28;20113;-66
2022/05/24 02:47:57;;;;;;;27.92;20.55;;;13.20;99.90;;;;;;5057829;28;20467;-67
2022/05/24 02:50:23;;;;;;;26.98;19.63;;;13.30;99.90;;;;;;5057712;28;20051;-66
2022/05/24 02:52:49;;;;;;;28.50;20.83;;;13.20;99.90;;;;;;5058317;28;20052;-65
2022/05/24 02:55:15;;;;;;;31.52;22.63;;;13.20;99.90;;;;;;5075071;28;20135;-65
2022/05/24 02:57:41;;;;;;;31.02;21.33;;;13.30;99.90;;;;;;5075719;28;20463;-67
2022/05/24 03:00:14;;;;;;;33.10;21.88;;;13.30;99.90;;;;;;5058388;28;20123;-68
2022/05/24 03:02:40;;;;;;;30.42;22.35;;;13.30;99.90;;;;;;5075052;28;20052;-65
2022/05/24 03:05:07;;;;;;;29.50;22.33;;;13.30;99.90;;;;;;5056297;28;20055;-65
2022/05/24 03:10:18;;;;;;;27.65;23.15;;;13.40;99.90;;;;;;5075823;28;20092;-66
2022/05/24 03:15:28;;;;;;;31.88;22.10;;;13.40;99.90;;;;;;5075426;28;20552;-65
2022/05/24 03:17:53;;;;;;;29.88;22.20;;;13.40;99.90;;;;;;5057120;28;20127;-66
2022/05/24 03:20:20;;;;;;;31.73;23.63;;;13.50;99.90;;;;;;5074975;28;20078;-67
2022/05/24 03:22:46;;;;;;;29.70;23.88;;;13.40;99.90;;;;;;5075411;28;20404;-67
2022/05/24 03:25:12;;;;;;;31.85;22.67;;;13.50;99.90;;;;;;5057371;28;20127;-66
2022/05/24 03:27:37;;;;;;;29.40;22.73;;;13.50;99.90;;;;;;5075173;28;20067;-66
2022/05/24 03:30:03;;;;;;;32.08;23.35;;;13.50;99.90;;;;;;5075656;28;20049;-65
2022/05/24 03:32:29;;;;;;;30.85;23.10;;;13.50;99.90;;;;;;5073994;28;20492;-67
2022/05/24 03:34:54;;;;;;;29.48;23.35;;;13.50;99.90;;;;;;5075339;28;20120;-65
2022/05/24 03:37:21;;;;;;;30.35;22.77;;;13.50;99.90;;;;;;5075317;28;20131;-66
2022/05/24 03:39:47;;;;;;;29.23;22.58;;;13.50;99.90;;;;;;5057015;28;20040;-67
2022/05/24 03:42:13;;;;;;;25.13;20.92;;;13.60;99.90;;;;;;5074911;28;20055;-66
2022/05/24 03:44:39;;;;;;;29.17;22.25;;;13.60;99.90;;;;;;5075361;28;20052;-67
2022/05/24 03:47:05;;;;;;;26.08;20.98;;;13.60;99.90;;;;;;5056266;28;20048;-67
2022/05/24 03:49:31;;;;;;;25.55;20.67;;;13.60;99.90;;;;;;5074798;28;20056;-68
2022/05/24 03:51:57;;;;;;;24.80;20.67;;;13.60;99.90;;;;;;5074899;28;20048;-66
2022/05/24 03:54:22;;;;;;;23.58;19.77;;;13.60;99.90;;;;;;5075032;28;20182;-67
2022/05/24 03:59:32;;;;;;;26.90;20.35;;;13.70;99.90;;;;;;5074271;28;20396;-67
2022/05/24 04:01:58;;;;;;;25.77;20.55;;;13.60;99.90;;;;;;5040298;28;20052;-66
2022/05/24 04:04:23;;;;;;;22.90;20.23;;;13.70;99.90;;;;;;5074370;28;20071;-65
2022/05/24 04:06:49;;;;;;;26.52;19.83;;;13.70;99.90;;;;;;5074587;28;20068;-66
2022/05/24 04:09:14;;;;;;;25.40;19.27;;;13.70;99.90;;;;;;5056605;28;20056;-67
2022/05/24 04:11:40;;;;;;;25.77;19.98;;;13.70;99.90;;;;;;5056786;28;20048;-67
2022/05/24 04:14:06;;;;;;;22.02;17.92;;;13.80;99.90;;;;;;5055062;28;20052;-66
2022/05/24 04:16:31;;;;;;;23.48;18.70;;;13.80;99.90;;;;;;5072533;28;20050;-67
2022/05/24 04:18:57;;;;;;;23.30;18.77;;;13.80;99.90;;;;;;5055973;28;20064;-66
2022/05/24 04:21:23;;;;;;;21.45;17.55;;;13.80;99.90;;;;;;5073305;28;20051;-66
2022/05/24 04:23:48;;;;;;;23.50;18.23;;;13.80;99.90;;;;;;5073827;28;20480;-66
2022/05/24 04:26:14;;;;;;;23.30;18.30;;;13.80;99.90;;;;;;5056110;28;20504;-66
2022/05/24 04:28:39;;;;;;;24.17;19.23;;;13.80;99.90;;;;;;5074564;28;20084;-66
2022/05/24 04:31:05;;;;;;;25.50;19.48;;;13.80;99.90;;;;;;5073641;28;20156;-67
2022/05/24 04:33:31;;;;;;;26.80;18.90;;;13.80;99.90;;;;;;5055082;28;20049;-66
2022/05/24 04:35:56;;;;;;;26.13;19.30;;;13.90;99.90;;;;;;5074194;28;20106;-65
2022/05/24 04:38:23;;;;;;;29.23;20.90;;;13.90;99.90;;;;;;5073983;28;20060;-66
2022/05/24 04:43:33;;;;;;;26.23;20.67;;;13.90;99.90;;;;;;5072751;28;20124;-66
2022/05/24 04:45:59;;;;;;;29.52;21.90;;;13.80;99.90;;;;;;5073824;28;20060;-67
2022/05/24 04:48:25;;;;;;;29.30;21.02;;;13.80;99.90;;;;;;5073784;28;20052;-66
2022/05/24 04:50:52;;;;;;;28.75;21.88;;;13.90;99.90;;;;;;5071923;28;20068;-67
2022/05/24 04:53:18;;;;;;;29.75;21.67;;;13.80;99.90;;;;;;5056499;28;20480;-67
2022/05/24 04:55:43;;;;;;;32.22;22.05;;;13.80;99.90;;;;;;5073528;28;20055;-66
2022/05/24 04:58:11;;;;;;;31.25;22.42;;;13.80;99.90;;;;;;5073340;28;20125;-67
2022/05/24 05:00:37;;;;;;;30.80;22.40;;;13.80;99.90;;;;;;5073769;28;20055;-66
2022/05/24 05:03:08;;;;;;;26.05;21.38;;;13.80;99.90;;;;;;5072370;28;20056;-66
2022/05/24 05:05:33;;;;;;;33.05;23.23;;;13.80;99.90;;;;;;5072647;28;20057;-68
2022/05/24 05:07:59;;;;;;;29.08;21.27;;;13.80;99.90;;;;;;5073298;28;20408;-67
2022/05/24 05:10:24;;;;;;;27.23;21.67;;;13.80;99.90;;;;;;5071820;28;20416;-65
2022/05/24 05:12:50;;;;;;;29.90;22.55;;;13.80;99.90;;;;;;5055415;28;20091;-66
2022/05/24 05:15:16;;;;;;;27.02;21.75;;;13.80;99.90;;;;;;5072992;28;20052;-65
2022/05/24 05:17:42;;;;;;;28.30;21.88;;;13.90;99.90;;;;;;5072094;28;20040;-67
2022/05/24 05:20:08;;;;;;;26.13;19.25;;;13.90;99.90;;;;;;5073300;28;20066;-65
2022/05/24 05:22:33;;;;;;;28.08;19.73;;;13.90;99.90;;;;;;5072798;28;20405;-65
2022/05/24 05:24:59;;;;;;;27.45;19.45;;;13.90;99.90;;;;;;5071811;28;20071;-65
2022/05/24 05:27:25;;;;;;;24.58;18.33;;;13.90;99.90;;;;;;5073319;28;20465;-65
2022/05/24 05:32:35;;;;;;;21.05;17.10;;;13.90;99.90;;;;;;5068596;28;20063;-66
2022/05/24 05:35:01;;;;;;;23.02;15.90;;;13.80;99.90;;;;;;5071758;28;20139;-67
2022/05/24 05:37:30;;;;;;;22.40;16.40;;;13.80;99.90;;;;;;5071460;28;20109;-69
2022/05/24 05:39:55;;;;;;;23.90;15.70;;;13.90;99.90;;;;;;5069696;28;20048;-66
2022/05/24 05:42:22;;;;;;;24.00;17.33;;;13.90;99.90;;;;;;5053130;28;20044;-66
2022/05/24 05:44:49;;;;;;;24.52;15.73;;;14.00;99.90;;;;;;5071918;28;20071;-66
2022/05/24 05:47:19;;;;;;;25.95;16.73;;;14.00;99.90;;;;;;5053756;28;20048;-66
2022/05/24 05:49:46;;;;;;;18.58;15.23;;;14.00;99.90;;;;;;5072388;28;20113;-66
2022/05/24 05:52:12;;;;;;;18.35;15.05;;;14.10;99.90;;;;;;5071159;28;20125;-65
2022/05/24 05:54:38;;;;;;;19.02;14.65;;;14.10;99.90;;;;;;5070924;28;20049;-66
2022/05/24 05:57:06;;;;;;;21.58;14.55;;;14.20;99.90;;;;;;5070871;28;20520;-65
2022/05/24 05:59:32;;;;;;;20.13;14.40;;;14.20;99.90;;;;;;5072290;28;20064;-65
2022/05/24 06:01:58;;;;;;;20.67;14.82;;;14.10;99.90;;;;;;5071130;28;20057;-67
2022/05/24 06:04:26;;;;;;;19.83;14.73;;;14.20;99.90;;;;;;5049172;28;20083;-66
2022/05/24 06:06:53;;;;;;;19.52;13.95;;;14.10;99.90;;;;;;5067578;28;20040;-66
2022/05/24 06:09:19;;;;;;;19.98;14.32;;;14.10;99.90;;;;;;5050196;28;20049;-66
2022/05/24 06:11:48;;;;;;;18.70;14.27;;;14.20;99.90;;;;;;5071347;28;20045;-67
2022/05/24 06:14:14;;;;;;;19.70;13.93;;;14.20;99.90;;;;;;5073034;28;20076;-66
2022/05/24 06:16:41;;;;;;;18.77;13.73;;;14.20;99.90;;;;;;5058022;28;20048;-66
2022/05/24 06:19:07;;;;;;;16.98;13.50;;;14.20;99.90;;;;;;5076137;28;20051;-66
2022/05/24 06:21:33;;;;;;;22.30;14.57;;;14.20;99.90;;;;;;5075404;28;20405;-66
2022/05/24 06:24:06;;;;;;;20.30;15.27;;;14.30;99.90;;;;;;5058221;28;20049;-65
2022/05/24 06:26:33;;;;;;;22.73;15.05;;;14.30;99.90;;;;;;5073166;28;20118;-67
2022/05/24 06:29:00;;;;;;;18.35;14.10;;;14.30;99.90;;;;;;5059198;28;20057;-66
2022/05/24 06:31:26;;;;;;;22.40;14.73;;;14.30;99.90;;;;;;5058076;28;20060;-65
2022/05/24 06:33:52;;;;;;;22.23;15.05;;;14.30;99.90;;;;;;5075707;28;20064;-66
2022/05/24 06:36:18;;;;;;;17.60;14.57;;;14.30;99.90;;;;;;5075550;28;20064;-65
2022/05/24 06:38:44;;;;;;;17.95;14.07;;;14.30;99.90;;;;;;5072959;28;20040;-67
2022/05/24 06:41:10;;;;;;;16.42;14.32;;;14.40;99.90;;;;;;5056800;28;20125;-66
2022/05/24 06:43:36;;;;;;;21.48;14.15;;;14.40;99.90;;;;;;5057938;28;20481;-66
2022/05/24 06:46:09;;;;;;;19.60;14.05;;;14.50;99.90;;;;;;5072870;28;20725;-65
2022/05/24 06:48:40;;;;;;;21.45;14.55;;;14.50;99.90;;;;;;5055713;28;20044;-65
2022/05/24 06:51:24;;;;;;;17.38;14.02;;;14.40;99.90;;;;;;5076102;28;20044;-68
2022/05/24 06:53:50;;;;;;;20.42;13.55;;;14.40;99.90;;;;;;5076298;28;20049;-65
2022/05/24 06:56:17;;;;;;;16.95;14.25;;;14.40;99.90;;;;;;5075527;28;20044;-66
2022/05/24 06:58:43;;;;;;;18.25;13.52;;;14.40;99.90;;;;;;5075719;28;20056;-65
2022/05/24 07:03:55;;;;;;;19.63;13.35;;;14.50;99.90;;;;;;5073307;28;20072;-65
2022/05/24 07:06:21;;;;;;;18.80;12.73;;;14.50;99.90;;;;;;5057524;28;20144;-66
2022/05/24 07:08:48;;;;;;;17.70;12.95;;;14.50;99.90;;;;;;5057846;28;20045;-64
2022/05/24 07:11:16;;;;;;;13.85;12.15;;;14.50;99.90;;;;;;5057676;28;20052;-66
2022/05/24 07:13:42;;;;;;;17.42;12.27;;;14.40;99.90;;;;;;5076059;28;20071;-65
2022/05/24 07:16:09;;;;;;;19.88;11.95;;;14.40;99.90;;;;;;5074732;28;20048;-66
2022/05/24 07:18:36;;;;;;;13.63;11.02;;;14.40;99.90;;;;;;5075168;28;20053;-65
2022/05/24 07:21:02;;;;;;;18.00;11.80;;;14.40;99.90;;;;;;5075248;28;20082;-64
2022/05/24 07:23:27;;;;;;;14.32;11.32;;;14.40;99.90;;;;;;5075459;28;20091;-66
2022/05/24 07:25:55;;;;;;;19.13;12.43;;;14.30;99.90;;;;;;5057635;28;20491;-65
2022/05/24 07:28:22;;;;;;;18.20;12.70;;;14.30;99.90;;;;;;5057669;28;20083;-67
2022/05/24 07:30:49;;;;;;;17.40;10.93;;;14.20;99.90;;;;;;5056996;28;20063;-67
2022/05/24 07:33:16;;;;;;;16.98;12.25;;;14.20;99.90;;;;;;5075246;28;20049;-66
2022/05/24 07:35:42;;;;;;;18.25;13.27;;;14.10;99.90;;;;;;5057933;28;20048;-66
2022/05/24 07:38:09;;;;;;;15.88;11.85;;;14.10;99.90;;;;;;5056571;28;20080;-66
2022/05/24 07:46:08;;;;;;;17.95;12.82;;;14.10;99.90;;;;;;5074804;28;20471;-65
2022/05/24 07:48:34;;;;;;;14.30;12.15;;;14.10;99.90;;;;;;5056561;28;20547;-67
2022/05/24 07:51:00;;;;;;;16.92;12.60;;;14.10;99.90;;;;;;5074143;28;20140;-66
2022/05/24 07:53:26;;;;;;;16.48;13.05;;;14.20;99.90;;;;;;5056418;28;20499;-67
2022/05/24 07:55:56;;;;;;;18.15;12.48;;;14.20;99.90;;;;;;5074836;28;20052;-66
2022/05/24 07:58:22;;;;;;;19.25;12.25;;;14.20;99.90;;;;;;5055641;28;20488;-66
2022/05/24 08:00:48;;;;;;;16.05;12.57;;;14.30;99.90;;;;;;5072587;28;20135;-66
2022/05/24 08:03:16;;;;;;;14.82;12.48;;;14.30;99.90;;;;;;5055121;28;20157;-67
2022/05/24 08:05:42;;;;;;;17.58;12.38;;;14.30;99.90;;;;;;5054582;28;20402;-67
2022/05/24 08:08:09;;;;;;;15.65;11.50;;;14.40;99.90;;;;;;5074645;28;20088;-67
2022/05/24 08:10:37;;;;;;;15.05;11.82;;;14.60;99.90;;;;;;5074362;28;20084;-66
2022/05/24 08:13:10;;;;;;;14.15;11.48;;;14.70;99.90;;;;;;5074164;28;20056;-66
2022/05/24 08:15:36;;;;;;;18.30;11.88;;;14.70;99.90;;;;;;5070666;28;20054;-67
2022/05/24 08:18:03;;;;;;;15.52;11.43;;;14.80;99.90;;;;;;5054473;28;20128;-66
2022/05/24 08:20:32;;;;;;;16.08;12.10;;;15.00;99.90;;;;;;5074471;28;20044;-66
2022/05/24 08:22:58;;;;;;;16.27;11.25;;;15.20;99.90;;;;;;5074422;28;20045;-66
2022/05/24 08:25:25;;;;;;;14.55;10.48;;;15.30;99.90;;;;;;5073794;28;20060;-66
2022/05/24 08:27:51;;;;;;;13.40;9.48;;;15.40;99.90;;;;;;5055451;28;20056;-66
2022/05/24 08:30:18;;;;;;;14.55;10.57;;;15.40;99.90;;;;;;5075408;28;20520;-66
2022/05/24 08:32:44;;;;;;;13.60;9.85;;;15.40;99.90;;;;;;5056892;28;20056;-66
2022/05/24 08:35:12;;;;;;;8.57;7.60;;;15.60;99.90;;;;;;5073680;28;20051;-65
2022/05/24 08:37:40;;;;;;;12.10;7.70;;;15.70;99.90;;;;;;5072527;28;20060;-67
2022/05/24 08:40:06;;;;;;;11.60;7.72;;;15.80;99.90;;;;;;5074491;28;20074;-67
2022/05/24 08:42:50;;;;;;;9.15;6.82;;;15.90;99.90;;;;;;5073660;28;20063;-65
2022/05/24 08:48:26;;;;;;;8.23;6.18;;;16.00;99.90;;;;;;5072207;28;20059;-65
2022/05/24 08:51:08;;;;;;;6.00;5.07;;;16.30;99.90;;;;;;5073645;28;20519;-65
2022/05/24 08:53:46;;;;;;;10.18;4.47;;;16.50;99.90;;;;;;5072568;28;20523;-65
2022/05/24 08:56:20;;;;;;;8.10;4.75;;;16.80;99.90;;;;;;5055685;28;20462;-66
2022/05/24 08:58:55;;;;;;;6.47;5.82;;;17.00;99.90;;;;;;5055859;28;20075;-67
2022/05/24 09:01:27;;;;;;;7.10;4.57;;;17.10;99.90;;;;;;5055142;28;20057;-64
2022/05/24 09:03:53;;;;;;;7.00;4.38;;;17.10;99.90;;;;;;5072945;28;20464;-67
2022/05/24 09:06:32;;;;;;;7.00;4.45;;;17.10;99.90;;;;;;5055410;28;20059;-66
2022/05/24 09:09:35;;;;;;;7.90;5.05;;;17.20;99.90;;;;;;5072845;28;20400;-65
2022/05/24 09:12:20;;;;;;;;;;;17.10;99.90;;;;;;5073542;28;20101;-64
2022/05/24 09:15:17;;;;;;;7.07;5.22;;;16.90;99.90;;;;;;5055619;28;19963;-65
2022/05/24 09:18:20;;;;;;;6.53;4.63;;;17.10;99.90;;;;;;5053669;28;20522;-65
2022/05/24 09:20:45;;;;;;;6.82;4.97;;;17.20;99.90;;;;;;5055545;28;20045;-66
2022/05/24 09:23:15;;;;;;;7.10;5.22;;;17.10;99.90;;;;;;5055094;28;20059;-65
2022/05/24 09:25:56;;;;;;;6.50;4.60;;;16.90;99.90;;;;;;5055356;28;20059;-64
2022/05/24 09:28:49;;;;;;;7.53;5.45;;;16.80;99.90;;;;;;5071393;28;20051;-65
2022/05/24 09:31:25;;;;;;;6.50;4.35;;;16.70;99.90;;;;;;5072362;28;20501;-65
2022/05/24 09:34:00;;;;;;;6.95;4.50;;;16.60;99.90;;;;;;5072058;28;20088;-66
2022/05/24 09:36:39;;;;;;;6.22;4.30;;;16.50;99.90;;;;;;5070500;28;20045;-65
2022/05/24 09:39:20;;;;;;;7.55;4.40;;;16.50;99.90;;;;;;5068321;28;20048;-66
2022/05/24 09:41:53;;;;;;;6.78;5.03;;;16.40;99.90;;;;;;5055431;28;20071;-66
2022/05/24 09:44:19;;;;;;;6.65;4.80;;;16.40;99.90;;;;;;5054116;28;20457;-64
2022/05/24 09:46:44;;;;;;;9.13;5.28;;;16.40;99.90;;;;;;5053633;28;20056;-65
2022/05/24 09:49:25;;;;;;;5.20;4.75;;;16.50;99.90;;;;;;5068461;28;20385;-66
2022/05/24 09:51:57;;;;;;;7.93;4.63;;;16.70;99.90;;;;;;5072190;28;20063;-65
2022/05/24 09:54:26;;;;;;;5.57;5.00;;;16.90;99.90;;;;;;5054914;28;20083;-66
2022/05/24 09:57:09;;;;;;;4.82;4.38;;;17.10;99.90;;;;;;5072463;28;20056;-65
2022/05/24 09:59:37;;;;;;;7.03;4.32;;;17.40;99.90;;;;;;5070665;28;20064;-66
2022/05/24 10:02:23;;;;;;;5.53;4.70;;;17.40;99.90;;;;;;5069518;28;20059;-66
2022/05/24 10:04:48;;;;;;;5.25;4.47;;;17.30;99.90;;;;;;5054210;28;20049;-66
2022/05/24 10:07:29;;;;;;;5.28;4.55;;;17.10;99.90;;;;;;5054774;28;20052;-64
2022/05/24 10:10:09;;;;;;;6.80;3.50;;;17.20;99.90;;;;;;5068930;28;20056;-65
2022/05/24 10:12:46;;;;;;;4.03;2.83;;;17.20;99.90;;;;;;5054315;28;20056;-65
2022/05/24 10:15:31;;;;;;;3.47;2.00;;;17.20;99.90;;;;;;5070932;28;20119;-66
2022/05/24 10:18:31;;;;;;;1.67;1.30;;;17.20;99.90;;;;;;5070884;28;20121;-65
2022/05/24 10:20:59;;;;;;;2.47;1.40;;;17.10;99.90;;;;;;5069406;28;20098;-65
2022/05/24 10:23:32;;;;;;;2.97;1.80;;;17.00;99.90;;;;;;5043474;28;20064;-67
2022/05/24 10:26:03;;;;;;;;;;;17.10;99.90;;;;;;5076453;28;20063;-66
2022/05/24 10:28:46;;;;;;;5.13;2.00;;;17.00;99.90;;;;;;5070809;28;19920;-65
2022/05/24 10:31:36;;;;;;;3.35;2.20;;;17.10;99.90;;;;;;5072142;28;20049;-67
2022/05/24 10:40:07;;;;;;;1.95;1.80;;;16.90;99.90;;;;;;5070703;28;20149;-65
2022/05/24 10:43:24;;;;;;;3.40;2.30;;;16.90;99.90;;;;;;5052773;28;20453;-65
2022/05/24 10:46:07;;;;;;;4.88;2.40;;;16.90;99.90;;;;;;4970094;28;20055;-65
2022/05/24 10:48:38;;;;;;;2.28;1.73;;;16.50;99.90;;;;;;4955195;28;20538;-67
2022/05/24 10:51:17;;;;;;;2.73;1.87;;;16.20;99.90;;;;;;5022400;28;20084;-66
2022/05/24 10:53:52;;;;;;;3.00;1.40;;;15.80;99.90;;;;;;5070994;28;20310;-65
2022/05/24 10:56:35;;;;;;;0.85;0.75;;;15.40;99.90;;;;;;5054273;28;20060;-65
2022/05/24 10:59:15;;;;;;;0.80;0.60;;;15.10;99.90;;;;;;5069334;28;20226;-66
2022/05/24 11:01:56;;;;;;;0.70;0.70;;;14.90;99.90;;;;;;5085161;28;20392;-65
2022/05/24 11:04:33;;;;;;;1.48;0.60;;;14.70;99.90;;;;;;5057788;28;20084;-66
2022/05/24 11:07:11;;;;;;;1.50;0.88;;;14.20;99.90;;;;;;5075852;28;20045;-66
2022/05/24 11:09:45;;;;;;;2.83;0.93;;;14.20;99.90;;;;;;5075759;28;20127;-65
2022/05/24 11:12:18;;;;;;;2.13;1.20;;;14.10;99.90;;;;;;5056866;28;20106;-66
2022/05/24 11:14:50;;;;;;;1.52;1.42;;;13.90;99.90;;;;;;5075437;28;20052;-66
2022/05/24 11:17:18;;;;;;;1.42;1.23;;;13.90;99.90;;;;;;5074368;28;20040;-65
2022/05/24 11:19:50;;;;;;;2.80;1.33;;;13.80;99.90;;;;;;5075025;28;20054;-66
2022/05/24 11:22:21;;;;;;;2.70;1.70;;;13.70;99.90;;;;;;5073454;28;20119;-66
2022/05/24 11:25:02;;;;;;;3.27;1.93;;;13.70;99.90;;;;;;5075290;28;20059;-66
2022/05/24 11:27:40;;;;;;;2.25;2.05;;;13.80;99.90;;;;;;5075941;28;20291;-65
2022/05/24 11:30:30;;;;;;;2.47;2.17;;;13.80;99.90;;;;;;5072744;28;20041;-66
2022/05/24 11:33:09;;;;;;;2.75;2.55;;;13.80;99.90;;;;;;5074199;28;20052;-66
2022/05/24 11:35:53;;;;;;;2.40;2.20;;;13.80;99.90;;;;;;5075588;28;20049;-66
2022/05/24 11:38:22;;;;;;;2.30;1.45;;;13.90;99.90;;;;;;5075063;28;20564;-65
2022/05/24 11:40:56;;;;;;;2.63;1.88;;;13.80;99.90;;;;;;5053490;28;20056;-66
2022/05/24 11:43:43;;;;;;;2.40;1.90;;;13.80;99.90;;;;;;5056092;28;20496;-65
2022/05/24 11:46:33;;;;;;;2.97;1.75;;;13.80;99.90;;;;;;5071996;28;20079;-66
2022/05/24 11:49:01;;;;;;;2.63;1.65;;;13.80;99.90;;;;;;5074041;28;20041;-65
2022/05/24 11:51:34;;;;;;;2.13;1.52;;;13.90;99.90;;;;;;5073777;28;20056;-66
2022/05/24 11:54:03;;;;;;;2.17;1.63;;;14.10;99.90;;;;;;5056781;28;20063;-66
2022/05/24 11:56:29;;;;;;;2.20;1.60;;;14.30;99.90;;;;;;5073671;28;20106;-66
2022/05/24 11:59:02;;;;;;;2.25;1.67;;;14.40;99.90;;;;;;5051633;28;20127;-66
2022/05/24 12:01:27;;;;;;;2.50;1.63;;;14.70;99.90;;;;;;5071679;28;20083;-66
2022/05/24 12:10:03;;;;;;;3.35;2.20;;;15.40;99.90;;;;;;5048770;28;20376;-65
2022/05/24 12:12:35;;;;;;;3.30;2.10;;;15.50;99.90;;;;;;5074713;28;20390;-67
2022/05/24 12:15:12;;;;;;;3.40;2.05;;;15.70;99.90;;;;;;5074081;28;20097;-66
2022/05/24 12:17:38;;;;;;;2.13;1.77;;;16.00;99.90;;;;;;5074058;28;20052;-66
2022/05/24 12:20:05;;;;;;;2.10;1.90;;;16.20;99.90;;;;;;5074670;28;20110;-65
2022/05/24 12:22:50;;;;;;;2.80;1.85;;;16.30;99.90;;;;;;5074205;28;20049;-68
2022/05/24 12:25:55;;;;;;;3.35;1.85;;;16.40;99.90;;;;;;5072805;28;20447;-66
2022/05/24 12:28:28;;;;;;;4.47;1.48;;;16.40;99.90;;;;;;5073654;28;20048;-66
2022/05/24 12:30:57;;;;;;;2.83;1.40;;;16.70;99.90;;;;;;5056442;28;20139;-66
2022/05/24 12:33:31;;;;;;;1.92;1.50;;;16.90;99.90;;;;;;5074304;28;20107;-66
2022/05/24 12:36:06;;;;;;;2.85;1.30;;;17.00;99.90;;;;;;5074201;28;20048;-65
2022/05/24 12:38:34;;;;;;;1.25;1.00;;;17.10;99.90;;;;;;5073304;28;20052;-66
2022/05/24 12:41:10;;;;;;;3.10;1.27;;;17.20;99.90;;;;;;5073869;28;20096;-64
2022/05/24 12:43:35;;;;;;;3.55;1.48;;;17.20;99.90;;;;;;5073689;28;20089;-66
2022/05/24 12:46:01;;;;;;;1.13;0.88;;;17.20;99.90;;;;;;5073242;28;20900;-65
2022/05/24 12:48:36;;;;;;;2.17;1.00;;;17.10;99.90;;;;;;5055420;28;20055;-64
2022/05/24 12:51:07;;;;;;;1.73;1.00;;;16.90;99.90;;;;;;5073675;28;20489;-67
2022/05/24 12:53:34;;;;;;;1.83;0.80;;;16.60;99.90;;;;;;5073569;28;20072;-65
2022/05/24 12:56:07;;;;;;;2.58;1.00;;;16.30;99.90;;;;;;5073397;28;20117;-64
2022/05/24 12:58:43;;;;;;;3.92;0.82;;;16.00;99.90;;;;;;5073234;28;20079;-66
2022/05/24 13:01:14;;;;;;;1.77;0.98;;;15.80;99.90;;;;;;5072309;28;20123;-66
2022/05/24 13:03:47;;;;;;;0.98;0.82;;;15.60;99.90;;;;;;5073448;28;20052;-65
2022/05/24 13:06:23;;;;;;;1.63;0.80;;;15.60;99.90;;;;;;5073384;28;20170;-66
2022/05/24 13:09:14;;;;;;;0.70;0.70;;;15.50;99.90;;;;;;5055522;28;20130;-65
2022/05/24 13:11:41;;;;;;;2.67;1.02;;;15.40;99.90;;;;;;5073447;28;20060;-65
2022/05/24 13:14:15;;;;;;;2.28;1.20;;;15.40;99.90;;;;;;5051400;28;20050;-66
2022/05/24 13:16:41;;;;;;;1.88;0.98;;;15.40;99.90;;;;;;5070631;28;20056;-66
2022/05/24 13:19:06;;;;;;;2.05;0.98;;;15.40;99.90;;;;;;5072173;28;20044;-66
2022/05/24 13:21:34;;;;;;;2.15;1.25;;;15.40;99.90;;;;;;5079472;28;20105;-66
2022/05/24 13:24:17;;;;;;;2.70;1.27;;;15.40;99.90;;;;;;5070579;28;20127;-65
2022/05/24 13:27:04;;;;;;;2.10;1.15;;;15.40;99.90;;;;;;5071929;28;20521;-66
2022/05/24 13:29:30;;;;;;;2.05;1.20;;;15.50;99.90;;;;;;5055825;28;20060;-66
2022/05/24 13:34:58;;;;;;;1.98;1.30;;;16.20;99.90;;;;;;5073096;28;20049;-65
2022/05/24 13:37:45;;;;;;;2.25;1.20;;;16.70;99.90;;;;;;5070366;28;20097;-65
2022/05/24 13:40:11;;;;;;;3.88;1.90;;;16.70;99.90;;;;;;5069182;28;20063;-66
2022/05/24 13:42:52;;;;;;;3.00;1.50;;;16.70;99.90;;;;;;5078575;28;20052;-65